Time;durP1;ratioP1;P1;durP2;ratioP2;P2;SDS_P1;SDS_P2;PMS_P1;PMS_P2;Temp;Humidity;BMP_temperature;BMP_pressure;BME280_temperature;BME280_humidity;BME280_pressure;Samples;Min_cycle;Max_cycle;Signal;HPM_P1;HPM_P2
2023/08/27 00:00:05;;;;;;;1.70;0.93;;;19.60;99.90;;;;;;4149721;28;20084;-67
2023/08/27 00:02:05;;;;;;;1.67;0.85;;;19.60;99.90;;;;;;4150700;28;20037;-64
2023/08/27 00:04:06;;;;;;;1.73;1.23;;;19.60;99.90;;;;;;4152484;28;20128;-65
2023/08/27 00:06:08;;;;;;;2.90;1.17;;;19.50;99.90;;;;;;4151518;28;20048;-64
2023/08/27 00:08:10;;;;;;;2.50;0.90;;;19.50;99.90;;;;;;4155591;28;20044;-64
2023/08/27 00:10:11;;;;;;;1.40;1.00;;;19.40;99.90;;;;;;4162207;28;20045;-65
2023/08/27 00:12:11;;;;;;;1.88;1.30;;;19.40;99.90;;;;;;4150071;28;20280;-64
2023/08/27 00:14:12;;;;;;;1.05;0.90;;;19.40;99.90;;;;;;4152229;28;20045;-64
2023/08/27 00:16:14;;;;;;;2.40;0.80;;;19.40;99.90;;;;;;4151228;28;20037;-64
2023/08/27 00:18:15;;;;;;;1.17;1.00;;;19.30;99.90;;;;;;4160497;28;20078;-64
2023/08/27 00:20:16;;;;;;;3.03;1.15;;;19.30;99.90;;;;;;4160398;28;20503;-64
2023/08/27 00:22:16;;;;;;;1.35;0.90;;;19.30;99.90;;;;;;4160605;28;20029;-64
2023/08/27 00:24:17;;;;;;;1.55;0.80;;;19.30;99.90;;;;;;4161008;28;20037;-64
2023/08/27 00:26:18;;;;;;;2.38;1.10;;;19.30;99.90;;;;;;4174284;28;20524;-64
2023/08/27 00:28:18;;;;;;;1.40;1.25;;;19.20;99.90;;;;;;4159510;28;20068;-64
2023/08/27 00:30:19;;;;;;;3.25;1.40;;;19.20;99.90;;;;;;4158917;28;20033;-69
2023/08/27 00:32:20;;;;;;;3.25;1.23;;;19.20;99.90;;;;;;4164953;28;20052;-70
2023/08/27 00:34:21;;;;;;;2.65;1.10;;;19.20;99.90;;;;;;4161328;28;20037;-70
2023/08/27 00:36:21;;;;;;;1.10;1.00;;;19.20;99.90;;;;;;4159066;28;20044;-70
2023/08/27 00:38:22;;;;;;;1.75;1.30;;;19.20;99.90;;;;;;4159712;28;20038;-70
2023/08/27 00:40:27;;;;;;;1.98;1.10;;;19.20;99.90;;;;;;4160128;28;20033;-70
2023/08/27 00:42:27;;;;;;;2.22;1.20;;;19.20;99.90;;;;;;4154025;28;20164;-70
2023/08/27 00:44:28;;;;;;;2.53;1.10;;;19.20;99.90;;;;;;4154070;28;20034;-70
2023/08/27 00:46:29;;;;;;;1.00;0.90;;;19.20;99.90;;;;;;4154420;28;20051;-70
2023/08/27 00:48:29;;;;;;;2.70;0.80;;;19.20;99.90;;;;;;4155463;28;20026;-68
2023/08/27 00:50:31;;;;;;;2.70;0.90;;;19.20;99.90;;;;;;4159463;28;20089;-70
2023/08/27 00:52:32;;;;;;;2.97;1.00;;;19.10;99.90;;;;;;4155204;28;20042;-70
2023/08/27 00:54:33;;;;;;;1.10;0.90;;;19.00;99.90;;;;;;4157481;28;20037;-70
2023/08/27 00:56:34;;;;;;;1.45;0.82;;;19.00;99.90;;;;;;4159307;28;20080;-69
2023/08/27 00:58:34;;;;;;;2.20;0.90;;;19.00;99.90;;;;;;4156097;28;20479;-70
2023/08/27 01:00:36;;;;;;;1.45;1.02;;;19.00;99.90;;;;;;4160034;28;20397;-70
2023/08/27 01:02:42;;;;;;;2.00;1.05;;;18.90;99.90;;;;;;4158609;28;20061;-70
2023/08/27 01:04:43;;;;;;;1.80;1.23;;;19.00;99.90;;;;;;4156392;28;20561;-70
2023/08/27 01:06:44;;;;;;;1.63;1.20;;;19.00;99.90;;;;;;4171812;28;20037;-70
2023/08/27 01:08:59;;;;;;;1.73;1.05;;;18.90;99.90;;;;;;4154752;28;20030;-70
2023/08/27 01:11:28;;;;;;;3.35;1.05;;;19.00;99.90;;;;;;4160109;28;20034;-70
2023/08/27 01:13:41;;;;;;;2.00;1.10;;;19.00;99.90;;;;;;4152192;28;20025;-70
2023/08/27 01:15:42;;;;;;;;;;;18.90;99.90;;;;;;4152901;28;20053;-70
2023/08/27 01:17:43;;;;;;;2.05;1.08;;;18.90;99.90;;;;;;4157401;28;19913;-70
2023/08/27 01:19:44;;;;;;;2.80;1.20;;;18.90;99.90;;;;;;4160681;28;20052;-70
2023/08/27 01:21:45;;;;;;;1.58;1.00;;;18.80;99.90;;;;;;4160092;28;20176;-70
2023/08/27 01:23:45;;;;;;;3.17;1.15;;;18.80;99.90;;;;;;4160795;28;20030;-70
2023/08/27 01:25:52;;;;;;;2.47;0.98;;;18.80;99.90;;;;;;4160674;28;20046;-70
2023/08/27 01:28:32;;;;;;;2.45;0.90;;;18.90;99.90;;;;;;4179527;28;20068;-70
2023/08/27 01:31:03;;;;;;;1.45;1.10;;;18.80;99.90;;;;;;4109923;28;20039;-69
2023/08/27 01:33:13;;;;;;;1.70;1.30;;;18.80;99.90;;;;;;4152944;28;20113;-69
2023/08/27 01:35:15;;;;;;;1.60;0.82;;;18.80;99.90;;;;;;4163162;28;20117;-70
2023/08/27 01:37:16;;;;;;;1.35;1.10;;;18.70;99.90;;;;;;4159572;28;20025;-71
2023/08/27 01:39:16;;;;;;;1.42;1.00;;;18.60;99.90;;;;;;4158689;28;20370;-70
2023/08/27 01:41:17;;;;;;;1.67;1.00;;;18.60;99.90;;;;;;4162763;28;20030;-64
2023/08/27 01:43:18;;;;;;;5.57;1.23;;;18.60;99.90;;;;;;4155373;28;20036;-64
2023/08/27 01:45:18;;;;;;;0.82;0.80;;;18.60;99.90;;;;;;4158297;28;20474;-64
2023/08/27 01:47:19;;;;;;;2.75;0.98;;;18.50;99.90;;;;;;4163042;28;20026;-64
2023/08/27 01:49:20;;;;;;;1.73;1.02;;;18.50;99.90;;;;;;4168808;28;20029;-64
2023/08/27 01:51:20;;;;;;;1.67;1.10;;;18.50;99.90;;;;;;4161651;28;20421;-62
2023/08/27 01:53:21;;;;;;;2.10;1.33;;;18.50;99.90;;;;;;4163327;28;20057;-62
2023/08/27 01:55:21;;;;;;;1.13;0.80;;;18.50;99.90;;;;;;4192467;28;20056;-62
2023/08/27 01:57:22;;;;;;;1.02;0.82;;;18.50;99.90;;;;;;4167351;28;20159;-62
2023/08/27 01:59:22;;;;;;;1.55;1.15;;;18.40;99.90;;;;;;4163239;28;20103;-62
2023/08/27 02:01:23;;;;;;;1.17;0.80;;;18.40;99.90;;;;;;4149148;28;20478;-62
2023/08/27 02:03:24;;;;;;;2.28;1.13;;;18.40;99.90;;;;;;4161971;28;20033;-62
2023/08/27 02:05:24;;;;;;;1.50;1.10;;;18.40;99.90;;;;;;4156780;28;20056;-62
2023/08/27 02:07:25;;;;;;;1.92;1.13;;;18.40;99.90;;;;;;4159826;28;20044;-62
2023/08/27 02:09:25;;;;;;;2.38;1.15;;;18.40;99.90;;;;;;4155506;28;20116;-62
2023/08/27 02:11:26;;;;;;;1.73;1.10;;;18.40;99.90;;;;;;4162374;28;20033;-62
2023/08/27 02:13:27;;;;;;;2.38;1.05;;;18.40;99.90;;;;;;4162472;28;20042;-62
2023/08/27 02:15:27;;;;;;;1.83;1.10;;;18.40;99.90;;;;;;4158912;28;20034;-62
2023/08/27 02:17:28;;;;;;;1.85;1.25;;;18.40;99.90;;;;;;4162718;28;20402;-62
2023/08/27 02:19:28;;;;;;;1.08;0.88;;;18.40;99.90;;;;;;4155210;28;20040;-62
2023/08/27 02:21:29;;;;;;;1.70;1.00;;;18.40;99.90;;;;;;4159751;28;20117;-62
2023/08/27 02:23:29;;;;;;;1.20;1.10;;;18.40;99.90;;;;;;4155622;28;20397;-62
2023/08/27 02:25:30;;;;;;;3.65;1.30;;;18.40;99.90;;;;;;4161187;28;20528;-63
2023/08/27 02:27:31;;;;;;;1.38;1.20;;;18.40;99.90;;;;;;4161524;28;20079;-63
2023/08/27 02:29:32;;;;;;;1.50;1.17;;;18.40;99.90;;;;;;4155389;28;20029;-64
2023/08/27 02:31:32;;;;;;;1.13;0.95;;;18.40;99.90;;;;;;4159905;28;20405;-63
2023/08/27 02:33:33;;;;;;;1.55;0.95;;;18.30;99.90;;;;;;4157360;28;20040;-63
2023/08/27 02:35:34;;;;;;;1.40;1.00;;;18.40;99.90;;;;;;4161399;28;20444;-63
2023/08/27 02:37:34;;;;;;;1.80;0.82;;;18.40;99.90;;;;;;4160896;28;20512;-63
2023/08/27 02:39:35;;;;;;;1.65;1.00;;;18.30;99.90;;;;;;4158385;28;20030;-63
2023/08/27 02:41:35;;;;;;;1.38;1.13;;;18.30;99.90;;;;;;4155445;28;20038;-62
2023/08/27 02:43:36;;;;;;;1.85;1.25;;;18.40;99.90;;;;;;4148806;28;20032;-62
2023/08/27 02:45:37;;;;;;;1.50;1.10;;;18.30;99.90;;;;;;4154417;28;20041;-62
2023/08/27 02:47:37;;;;;;;2.83;1.50;;;18.30;99.90;;;;;;4150852;28;20068;-62
2023/08/27 02:49:38;;;;;;;3.88;1.55;;;18.30;99.90;;;;;;4149771;28;20059;-63
2023/08/27 02:51:39;;;;;;;2.55;1.33;;;18.30;99.90;;;;;;4168103;28;20406;-62
2023/08/27 02:53:39;;;;;;;2.03;1.35;;;18.30;99.90;;;;;;4162023;28;20120;-62
2023/08/27 02:55:40;;;;;;;2.50;1.00;;;18.30;99.90;;;;;;4163885;28;20047;-62
2023/08/27 02:57:40;;;;;;;1.30;1.20;;;18.30;99.90;;;;;;4161973;28;20485;-62
2023/08/27 02:59:41;;;;;;;1.15;0.85;;;18.30;99.90;;;;;;4156071;28;20034;-62
2023/08/27 03:01:42;;;;;;;1.33;1.08;;;18.30;99.90;;;;;;4151623;28;20037;-63
2023/08/27 03:03:42;;;;;;;2.25;1.15;;;18.40;99.90;;;;;;4156347;28;20573;-63
2023/08/27 03:05:43;;;;;;;2.78;1.50;;;18.40;99.90;;;;;;4160771;28;20103;-63
2023/08/27 03:07:44;;;;;;;2.30;1.00;;;18.40;99.90;;;;;;4158068;28;20064;-63
2023/08/27 03:09:45;;;;;;;1.75;1.20;;;18.30;99.90;;;;;;4158507;28;20388;-71
2023/08/27 03:11:45;;;;;;;1.83;1.27;;;18.30;99.90;;;;;;4166063;28;20049;-63
2023/08/27 03:13:48;;;;;;;1.50;1.25;;;18.30;99.90;;;;;;4146393;28;20077;-63
2023/08/27 03:15:48;;;;;;;;;;;18.30;99.90;;;;;;4158742;28;20038;-63
2023/08/27 03:17:49;;;;;;;1.50;1.20;;;18.20;99.90;;;;;;4158457;28;19916;-63
2023/08/27 03:19:50;;;;;;;2.15;1.00;;;18.30;99.90;;;;;;4161614;28;21960;-76
2023/08/27 03:21:50;;;;;;;2.22;1.33;;;18.20;99.90;;;;;;4161045;28;20068;-64
2023/08/27 03:23:51;;;;;;;3.90;1.48;;;18.20;99.90;;;;;;4158679;28;20113;-64
2023/08/27 03:25:52;;;;;;;2.05;1.40;;;18.20;99.90;;;;;;4164343;28;20045;-64
2023/08/27 03:27:52;;;;;;;1.45;1.15;;;18.10;99.90;;;;;;4160791;28;20558;-64
2023/08/27 03:29:53;;;;;;;1.48;1.02;;;18.10;99.90;;;;;;4161221;28;20061;-64
2023/08/27 03:31:53;;;;;;;1.77;1.20;;;18.10;99.90;;;;;;4160820;28;20090;-64
2023/08/27 03:33:54;;;;;;;1.38;1.10;;;18.00;99.90;;;;;;4159996;28;20389;-64
2023/08/27 03:35:56;;;;;;;2.03;1.15;;;18.10;99.90;;;;;;4155061;28;20041;-64
2023/08/27 03:37:56;;;;;;;1.95;1.38;;;18.10;99.90;;;;;;4155499;28;20072;-64
2023/08/27 03:39:57;;;;;;;1.77;1.05;;;18.00;99.90;;;;;;4160135;28;20037;-64
2023/08/27 03:41:58;;;;;;;1.55;1.25;;;18.00;99.90;;;;;;4158740;28;20508;-64
2023/08/27 03:43:58;;;;;;;1.10;1.00;;;18.00;99.90;;;;;;4157785;28;20045;-64
2023/08/27 03:45:59;;;;;;;2.10;1.13;;;18.00;99.90;;;;;;4148915;28;20397;-64
2023/08/27 03:47:59;;;;;;;1.67;1.27;;;18.00;99.90;;;;;;4159466;28;20037;-64
2023/08/27 03:50:00;;;;;;;1.83;1.10;;;18.00;99.90;;;;;;4161149;28;20121;-64
2023/08/27 03:52:00;;;;;;;2.65;1.00;;;17.90;99.90;;;;;;4159240;28;20052;-64
2023/08/27 03:54:02;;;;;;;3.00;1.48;;;17.90;99.90;;;;;;4158323;28;20084;-65
2023/08/27 03:56:03;;;;;;;1.38;1.20;;;17.90;99.90;;;;;;4162771;28;20029;-65
2023/08/27 03:58:04;;;;;;;2.42;1.38;;;17.90;99.90;;;;;;4169314;28;20115;-64
2023/08/27 04:00:06;;;;;;;1.40;1.08;;;17.90;99.90;;;;;;4158253;28;20531;-68
2023/08/27 04:02:08;;;;;;;1.85;1.17;;;17.90;99.90;;;;;;4159904;28;20034;-64
2023/08/27 04:04:09;;;;;;;1.88;1.58;;;17.90;99.90;;;;;;4153052;28;20037;-64
2023/08/27 04:06:10;;;;;;;2.10;1.60;;;17.90;99.90;;;;;;4152506;28;20044;-64
2023/08/27 04:08:11;;;;;;;3.30;1.55;;;17.90;99.90;;;;;;4160935;28;20029;-65
2023/08/27 04:10:11;;;;;;;2.40;1.52;;;17.90;99.90;;;;;;4153517;28;20146;-64
2023/08/27 04:12:12;;;;;;;1.85;1.30;;;17.90;99.90;;;;;;4151684;28;20552;-64
2023/08/27 04:14:12;;;;;;;2.22;1.60;;;17.90;99.90;;;;;;4160928;28;20037;-64
2023/08/27 04:16:13;;;;;;;1.60;1.23;;;17.90;99.90;;;;;;4158439;28;20034;-64
2023/08/27 04:18:14;;;;;;;2.25;1.15;;;17.90;99.90;;;;;;4160746;28;20552;-64
2023/08/27 04:20:15;;;;;;;1.83;1.50;;;17.90;99.90;;;;;;4160621;28;20038;-64
2023/08/27 04:22:16;;;;;;;2.90;1.88;;;17.90;99.90;;;;;;4160556;28;20116;-64
2023/08/27 04:24:16;;;;;;;2.42;1.67;;;17.90;99.90;;;;;;4163312;28;20037;-64
2023/08/27 04:26:18;;;;;;;2.33;1.67;;;17.90;99.90;;;;;;4159704;28;20033;-64
2023/08/27 04:28:19;;;;;;;1.40;1.30;;;17.90;99.90;;;;;;4156915;28;20036;-64
2023/08/27 04:30:20;;;;;;;1.92;1.30;;;17.90;99.90;;;;;;4159367;28;20041;-63
2023/08/27 04:32:20;;;;;;;2.55;1.75;;;17.90;99.90;;;;;;4160171;28;20064;-77
2023/08/27 04:34:21;;;;;;;1.40;1.13;;;18.00;99.90;;;;;;4153568;28;20227;-77
2023/08/27 04:36:21;;;;;;;3.90;1.40;;;18.00;99.90;;;;;;4158491;28;20485;-78
2023/08/27 04:38:22;;;;;;;1.17;1.08;;;18.00;99.90;;;;;;4165583;28;20033;-78
2023/08/27 04:40:23;;;;;;;1.77;1.33;;;18.00;99.90;;;;;;4154605;28;20520;-78
2023/08/27 04:42:24;;;;;;;2.45;1.50;;;18.00;99.90;;;;;;4152907;28;20045;-78
2023/08/27 04:44:26;;;;;;;2.28;1.60;;;18.10;99.90;;;;;;4161226;28;20029;-78
2023/08/27 04:46:26;;;;;;;2.72;1.48;;;18.10;99.90;;;;;;4166833;28;20048;-77
2023/08/27 04:48:27;;;;;;;2.35;1.60;;;18.10;99.90;;;;;;4156843;28;20037;-77
2023/08/27 04:50:28;;;;;;;2.17;1.63;;;18.10;99.90;;;;;;4160418;28;21126;-78
2023/08/27 04:52:28;;;;;;;3.70;1.20;;;18.10;99.90;;;;;;4166010;28;20033;-77
2023/08/27 04:54:29;;;;;;;3.40;1.65;;;18.10;99.90;;;;;;4157917;28;20121;-77
2023/08/27 04:56:29;;;;;;;3.08;1.33;;;18.10;99.90;;;;;;4146489;28;20536;-78
2023/08/27 04:58:30;;;;;;;2.45;1.38;;;18.10;99.90;;;;;;4160860;28;20029;-77
2023/08/27 05:00:31;;;;;;;1.55;1.33;;;18.10;99.90;;;;;;4161161;28;20040;-78
2023/08/27 05:02:32;;;;;;;1.65;1.20;;;18.10;99.90;;;;;;4162090;28;20420;-72
2023/08/27 05:04:32;;;;;;;2.28;1.50;;;18.10;99.90;;;;;;4162940;28;20053;-77
2023/08/27 05:06:33;;;;;;;2.40;1.42;;;18.10;99.90;;;;;;4163002;28;20501;-76
2023/08/27 05:08:33;;;;;;;1.48;1.13;;;18.10;99.90;;;;;;4160957;28;20080;-77
2023/08/27 05:10:35;;;;;;;1.67;1.30;;;18.10;99.90;;;;;;4152332;28;20120;-77
2023/08/27 05:12:36;;;;;;;1.98;1.30;;;18.10;99.90;;;;;;4155996;28;20045;-77
2023/08/27 05:14:36;;;;;;;1.73;1.30;;;18.20;99.90;;;;;;4156206;28;20038;-78
2023/08/27 05:16:37;;;;;;;1.58;1.20;;;18.20;99.90;;;;;;4163302;28;20163;-77
2023/08/27 05:18:37;;;;;;;2.00;1.30;;;18.20;99.90;;;;;;4163639;28;20033;-78
2023/08/27 05:20:38;;;;;;;2.13;1.48;;;18.20;99.90;;;;;;4162111;28;20087;-78
2023/08/27 05:22:39;;;;;;;1.90;1.20;;;18.20;99.90;;;;;;4160295;28;20033;-78
2023/08/27 05:24:39;;;;;;;2.38;1.52;;;18.20;99.90;;;;;;4162765;28;20086;-77
2023/08/27 05:26:40;;;;;;;4.97;1.60;;;18.20;99.90;;;;;;4160854;28;20045;-77
2023/08/27 05:28:41;;;;;;;2.40;1.23;;;18.20;99.90;;;;;;4156381;28;20083;-77
2023/08/27 05:30:42;;;;;;;2.50;1.30;;;18.20;99.90;;;;;;4153579;28;20536;-77
2023/08/27 05:32:43;;;;;;;1.92;1.27;;;18.20;99.90;;;;;;4162421;28;20080;-77
2023/08/27 05:34:43;;;;;;;2.17;1.55;;;18.20;99.90;;;;;;4163408;28;20025;-77
2023/08/27 05:36:44;;;;;;;2.38;1.40;;;18.20;99.90;;;;;;4160034;28;20033;-77
2023/08/27 05:38:45;;;;;;;2.20;1.30;;;18.20;99.90;;;;;;4160805;28;20030;-77
2023/08/27 05:40:46;;;;;;;2.03;1.38;;;18.20;99.90;;;;;;4158445;28;20036;-73
2023/08/27 05:42:46;;;;;;;1.92;1.13;;;18.20;99.90;;;;;;4157141;28;20079;-73
2023/08/27 05:44:47;;;;;;;1.35;1.05;;;18.20;99.90;;;;;;4154035;28;20056;-72
2023/08/27 05:46:47;;;;;;;1.90;1.20;;;18.20;99.90;;;;;;4161454;28;20073;-73
2023/08/27 05:48:48;;;;;;;3.00;1.52;;;18.20;99.90;;;;;;4156314;28;20041;-73
2023/08/27 05:50:49;;;;;;;2.72;1.50;;;18.20;99.90;;;;;;4160115;28;20056;-70
2023/08/27 05:52:49;;;;;;;1.98;1.35;;;18.10;99.90;;;;;;4162100;28;20034;-72
2023/08/27 05:54:50;;;;;;;3.75;1.10;;;18.20;99.90;;;;;;4162967;28;20547;-72
2023/08/27 05:56:51;;;;;;;2.55;1.40;;;18.20;99.90;;;;;;4163149;28;20041;-72
2023/08/27 05:58:51;;;;;;;2.83;1.33;;;18.20;99.90;;;;;;4162844;28;20183;-71
2023/08/27 06:00:53;;;;;;;1.45;0.70;;;18.20;99.90;;;;;;4158487;28;20025;-80
2023/08/27 06:02:54;;;;;;;3.33;1.00;;;18.10;99.90;;;;;;4153881;28;20040;-81
2023/08/27 06:04:54;;;;;;;1.50;0.90;;;18.10;99.90;;;;;;4145325;28;20102;-81
2023/08/27 06:06:55;;;;;;;1.38;0.90;;;18.20;99.90;;;;;;4158459;28;20048;-80
2023/08/27 06:08:56;;;;;;;1.98;0.90;;;18.20;99.90;;;;;;4155355;28;20355;-81
2023/08/27 06:10:56;;;;;;;1.65;1.02;;;18.20;99.90;;;;;;4158801;28;20040;-81
2023/08/27 06:12:57;;;;;;;0.82;0.70;;;18.20;99.90;;;;;;4158015;28;20026;-81
2023/08/27 06:14:58;;;;;;;1.30;0.90;;;18.20;99.90;;;;;;4160669;28;20140;-81
2023/08/27 06:16:59;;;;;;;1.00;0.88;;;18.20;99.90;;;;;;4158995;28;20025;-81
2023/08/27 06:18:59;;;;;;;0.98;0.80;;;18.20;99.90;;;;;;4154508;28;20084;-80
2023/08/27 06:21:00;;;;;;;1.80;1.20;;;18.20;99.90;;;;;;4157449;28;20429;-80
2023/08/27 06:23:04;;;;;;;1.60;0.95;;;18.20;99.90;;;;;;4160512;28;20029;-80
2023/08/27 06:25:05;;;;;;;1.08;0.85;;;18.20;99.90;;;;;;4160892;28;20032;-80
2023/08/27 06:27:06;;;;;;;1.63;1.00;;;18.20;99.90;;;;;;4157420;28;20390;-80
2023/08/27 06:29:07;;;;;;;0.82;0.77;;;18.20;99.90;;;;;;4158546;28;20156;-80
2023/08/27 06:31:07;;;;;;;0.88;0.82;;;18.30;99.90;;;;;;4160540;28;20386;-80
2023/08/27 06:33:11;;;;;;;3.35;1.33;;;18.20;99.90;;;;;;4161555;28;20029;-71
2023/08/27 06:35:12;;;;;;;1.90;1.10;;;18.30;99.90;;;;;;4158342;28;20369;-80
2023/08/27 06:37:12;;;;;;;3.08;1.23;;;18.20;99.90;;;;;;4160137;28;20034;-80
2023/08/27 06:39:13;;;;;;;2.70;1.23;;;18.30;99.90;;;;;;4163003;28;20505;-80
2023/08/27 06:41:13;;;;;;;0.65;0.63;;;18.20;99.90;;;;;;4159946;28;20061;-81
2023/08/27 06:43:14;;;;;;;1.70;1.17;;;18.20;99.90;;;;;;4161079;28;20025;-80
2023/08/27 06:45:15;;;;;;;1.83;1.08;;;18.20;99.90;;;;;;4160305;28;20049;-81
2023/08/27 06:47:15;;;;;;;1.20;1.00;;;18.20;99.90;;;;;;4177203;28;20185;-81
2023/08/27 06:49:16;;;;;;;2.17;1.10;;;18.20;99.90;;;;;;4159349;28;20026;-79
2023/08/27 06:51:17;;;;;;;1.13;1.02;;;18.20;99.90;;;;;;4162122;28;20032;-79
2023/08/27 06:53:18;;;;;;;1.40;1.00;;;18.30;99.90;;;;;;4160763;28;20049;-79
2023/08/27 06:55:18;;;;;;;3.92;1.23;;;18.40;99.90;;;;;;4170241;28;20041;-80
2023/08/27 06:57:21;;;;;;;2.88;1.05;;;18.50;99.90;;;;;;4163680;28;20120;-79
2023/08/27 06:59:21;;;;;;;1.73;1.08;;;18.70;99.90;;;;;;4161961;28;20477;-73
2023/08/27 07:01:23;;;;;;;1.98;0.82;;;18.80;99.90;;;;;;4160284;28;20097;-72
2023/08/27 07:03:24;;;;;;;1.77;1.20;;;18.90;99.90;;;;;;4168010;28;20045;-72
2023/08/27 07:05:24;;;;;;;2.42;1.02;;;18.90;99.90;;;;;;4165027;28;20049;-72
2023/08/27 07:07:25;;;;;;;1.35;1.00;;;18.90;99.90;;;;;;4165457;28;20044;-72
2023/08/27 07:09:27;;;;;;;1.48;0.90;;;19.00;99.90;;;;;;4165167;28;20040;-72
2023/08/27 07:11:29;;;;;;;1.08;0.77;;;19.10;99.90;;;;;;4162306;28;20415;-65
2023/08/27 07:13:30;;;;;;;2.45;1.05;;;19.20;99.90;;;;;;4163752;28;20034;-64
2023/08/27 07:15:30;;;;;;;1.92;1.17;;;19.30;99.90;;;;;;4161115;28;20088;-65
2023/08/27 07:17:34;;;;;;;2.45;1.13;;;19.40;99.90;;;;;;4160469;28;20381;-64
2023/08/27 07:19:35;;;;;;;1.20;1.05;;;19.50;99.90;;;;;;4174412;28;20080;-64
2023/08/27 07:21:35;;;;;;;2.08;1.33;;;19.70;99.90;;;;;;4158865;28;20025;-65
2023/08/27 07:23:36;;;;;;;2.05;1.02;;;19.80;99.90;;;;;;4161021;28;20033;-65
2023/08/27 07:25:38;;;;;;;1.88;1.60;;;20.00;99.90;;;;;;4160123;28;20041;-64
2023/08/27 07:27:38;;;;;;;4.10;2.22;;;20.10;99.90;;;;;;4158145;28;20108;-64
2023/08/27 07:29:39;;;;;;;1.98;1.77;;;20.30;99.90;;;;;;4160653;28;20032;-64
2023/08/27 07:31:40;;;;;;;3.30;2.80;;;20.50;99.90;;;;;;4157912;28;20055;-65
2023/08/27 07:33:40;;;;;;;3.55;2.88;;;20.60;99.90;;;;;;4160868;28;20485;-67
2023/08/27 07:35:41;;;;;;;5.15;4.15;;;20.80;99.90;;;;;;4159036;28;20084;-65
2023/08/27 07:37:42;;;;;;;6.22;4.80;;;20.90;99.90;;;;;;4159440;28;20052;-65
2023/08/27 07:39:42;;;;;;;6.15;4.20;;;21.10;99.90;;;;;;4158921;28;20048;-65
2023/08/27 07:41:43;;;;;;;6.82;4.85;;;21.20;99.90;;;;;;4160065;28;20087;-65
2023/08/27 07:43:44;;;;;;;7.40;3.70;;;21.40;99.90;;;;;;4156559;28;20389;-65
2023/08/27 07:45:44;;;;;;;5.55;3.90;;;21.50;99.90;;;;;;4156100;28;20037;-64
2023/08/27 07:47:45;;;;;;;5.07;3.45;;;21.50;99.90;;;;;;4160158;28;20485;-65
2023/08/27 07:49:45;;;;;;;4.78;3.10;;;21.60;99.90;;;;;;4160856;28;20033;-65
2023/08/27 07:51:46;;;;;;;4.97;2.70;;;21.70;99.90;;;;;;4158980;28;20429;-65
2023/08/27 07:53:47;;;;;;;4.18;2.47;;;21.70;99.90;;;;;;4162499;28;20029;-65
2023/08/27 07:55:47;;;;;;;6.50;2.15;;;21.70;99.90;;;;;;4160676;28;20041;-65
2023/08/27 07:57:48;;;;;;;2.88;2.00;;;21.70;99.90;;;;;;4157992;28;20030;-65
2023/08/27 07:59:51;;;;;;;4.20;2.25;;;21.90;99.90;;;;;;4160360;28;20512;-65
2023/08/27 08:01:51;;;;;;;4.78;2.90;;;21.90;99.90;;;;;;4161068;28;20409;-65
2023/08/27 08:03:52;;;;;;;5.15;2.75;;;21.90;99.90;;;;;;4161645;28;20053;-64
2023/08/27 08:05:53;;;;;;;4.88;2.80;;;21.90;99.90;;;;;;4157834;28;20041;-64
2023/08/27 08:07:53;;;;;;;2.97;2.08;;;22.00;99.90;;;;;;4160305;28;20120;-64
2023/08/27 08:09:54;;;;;;;2.90;1.67;;;21.90;99.90;;;;;;4160188;28;20053;-64
2023/08/27 08:11:55;;;;;;;3.05;1.80;;;22.00;99.90;;;;;;4158028;28;20029;-64
2023/08/27 08:13:55;;;;;;;2.95;1.60;;;22.00;99.90;;;;;;4161997;28;20112;-64
2023/08/27 08:15:56;;;;;;;2.97;1.30;;;21.90;99.90;;;;;;4158724;28;20096;-64
2023/08/27 08:17:56;;;;;;;1.77;1.25;;;21.70;99.90;;;;;;4160058;28;20108;-65
2023/08/27 08:19:57;;;;;;;1.20;1.10;;;21.70;99.90;;;;;;4158041;28;20382;-74
2023/08/27 08:21:58;;;;;;;1.83;1.30;;;21.70;99.90;;;;;;4172638;28;20039;-71
2023/08/27 08:23:58;;;;;;;1.92;1.10;;;21.70;99.90;;;;;;4161762;28;20029;-71
2023/08/27 08:26:00;;;;;;;2.75;1.10;;;21.60;99.90;;;;;;4159561;28;20045;-71
2023/08/27 08:28:00;;;;;;;2.35;1.17;;;21.50;99.90;;;;;;4160154;28;20030;-71
2023/08/27 08:30:03;;;;;;;2.13;1.00;;;21.50;99.90;;;;;;4159400;28;20439;-72
2023/08/27 08:32:04;;;;;;;;;;;21.40;99.90;;;;;;4156546;28;20044;-72
2023/08/27 08:34:04;;;;;;;3.63;1.05;;;21.30;99.90;;;;;;4154742;28;19910;-68
2023/08/27 08:36:05;;;;;;;3.17;0.90;;;21.20;99.90;;;;;;4166059;28;20473;-71
2023/08/27 08:38:06;;;;;;;1.98;1.17;;;21.10;99.90;;;;;;4168158;28;20037;-71
2023/08/27 08:40:07;;;;;;;2.30;1.23;;;21.00;99.90;;;;;;4155842;28;20034;-72
2023/08/27 08:42:31;;;;;;;1.50;1.17;;;21.00;99.90;;;;;;4154369;28;20398;-71
2023/08/27 08:45:04;;;;;;;1.67;1.10;;;20.90;99.90;;;;;;4160862;28;20033;-72
2023/08/27 08:47:09;;;;;;;3.30;1.23;;;20.80;99.90;;;;;;4155111;28;20045;-72
2023/08/27 08:49:14;;;;;;;1.95;1.10;;;20.80;99.90;;;;;;4154020;28;20087;-71
2023/08/27 08:51:19;;;;;;;2.03;1.17;;;20.70;99.90;;;;;;4157943;28;20442;-72
2023/08/27 08:53:23;;;;;;;1.67;0.85;;;20.70;99.90;;;;;;4165154;28;20026;-72
2023/08/27 08:55:26;;;;;;;2.40;1.02;;;20.80;99.90;;;;;;4153415;28;20030;-72
2023/08/27 08:57:29;;;;;;;3.75;1.10;;;20.70;99.90;;;;;;4159926;28;20057;-71
2023/08/27 08:59:32;;;;;;;2.35;1.05;;;20.80;99.90;;;;;;4159519;28;20048;-71
2023/08/27 09:01:34;;;;;;;2.30;1.08;;;20.80;99.90;;;;;;4157670;28;20034;-71
2023/08/27 09:03:36;;;;;;;5.63;1.50;;;20.70;99.90;;;;;;4153248;28;20473;-71
2023/08/27 09:05:38;;;;;;;2.17;1.13;;;20.70;99.90;;;;;;4157930;28;20578;-71
2023/08/27 09:07:40;;;;;;;2.53;1.10;;;20.70;99.90;;;;;;4161074;28;20034;-70
2023/08/27 09:09:42;;;;;;;1.95;0.90;;;20.70;99.90;;;;;;4178621;28;20029;-71
2023/08/27 09:11:43;;;;;;;2.42;1.00;;;20.80;99.90;;;;;;4143926;28;20046;-71
2023/08/27 09:13:44;;;;;;;3.13;1.15;;;20.80;99.90;;;;;;4158383;28;20172;-71
2023/08/27 09:15:45;;;;;;;2.85;1.17;;;20.80;99.90;;;;;;4160452;28;20041;-71
2023/08/27 09:17:47;;;;;;;3.95;1.17;;;20.80;99.90;;;;;;4156924;28;20433;-70
2023/08/27 09:19:47;;;;;;;3.05;0.80;;;20.80;99.90;;;;;;4159886;28;20041;-71
2023/08/27 09:21:49;;;;;;;3.20;1.33;;;20.80;99.90;;;;;;4161191;28;20029;-71
2023/08/27 09:23:50;;;;;;;2.65;1.25;;;20.80;99.90;;;;;;4159441;28;20124;-72
2023/08/27 09:25:52;;;;;;;2.22;0.80;;;20.80;99.90;;;;;;4151723;28;20126;-71
2023/08/27 09:27:53;;;;;;;2.33;1.10;;;20.80;99.90;;;;;;4159422;28;20034;-72
2023/08/27 09:29:59;;;;;;;3.72;1.05;;;20.80;99.90;;;;;;4153364;28;20050;-64
2023/08/27 09:32:00;;;;;;;1.67;0.93;;;20.80;99.90;;;;;;4155184;28;20029;-62
2023/08/27 09:34:00;;;;;;;2.88;1.20;;;20.80;99.90;;;;;;4156260;28;20041;-63
2023/08/27 09:36:01;;;;;;;2.13;1.10;;;20.80;99.90;;;;;;4165011;28;20164;-63
2023/08/27 09:38:02;;;;;;;0.98;0.63;;;20.80;99.90;;;;;;4158086;28;20030;-62
2023/08/27 09:40:06;;;;;;;2.35;0.98;;;20.80;99.90;;;;;;4151006;28;20042;-64
2023/08/27 09:42:11;;;;;;;2.10;0.95;;;20.90;99.90;;;;;;4152631;28;20489;-63
2023/08/27 09:44:12;;;;;;;1.83;0.93;;;21.00;99.90;;;;;;4159919;28;20033;-63
2023/08/27 09:46:16;;;;;;;2.00;0.73;;;21.00;99.90;;;;;;4158056;28;20059;-62
2023/08/27 09:48:27;;;;;;;1.92;0.93;;;21.00;99.90;;;;;;4162925;28;20053;-62
2023/08/27 09:50:29;;;;;;;2.17;1.05;;;21.10;99.90;;;;;;4162304;28;20034;-63
2023/08/27 09:52:30;;;;;;;1.38;0.88;;;21.10;99.90;;;;;;4157857;28;20038;-63
2023/08/27 09:54:31;;;;;;;1.75;1.02;;;21.10;99.90;;;;;;4163192;28;20509;-62
2023/08/27 09:56:36;;;;;;;2.42;1.20;;;21.20;99.90;;;;;;4161780;28;20033;-62
2023/08/27 09:58:39;;;;;;;3.22;1.10;;;21.10;99.90;;;;;;4176828;28;20135;-64
2023/08/27 10:00:42;;;;;;;1.98;1.10;;;21.10;99.90;;;;;;4157544;28;20111;-63
2023/08/27 10:02:43;;;;;;;2.22;0.98;;;21.10;99.90;;;;;;4163567;28;20041;-62
2023/08/27 10:04:56;;;;;;;3.15;1.00;;;21.10;99.90;;;;;;4162471;28;20053;-64
2023/08/27 10:06:56;;;;;;;2.33;1.10;;;21.10;99.90;;;;;;4154882;28;20041;-62
2023/08/27 10:08:58;;;;;;;2.40;1.08;;;21.20;99.90;;;;;;4149865;28;20158;-62
2023/08/27 10:11:09;;;;;;;3.72;1.10;;;21.30;99.90;;;;;;4154940;28;20069;-62
2023/08/27 10:13:11;;;;;;;5.43;1.30;;;21.30;99.90;;;;;;4161280;28;20038;-62
2023/08/27 10:15:12;;;;;;;;;;;21.30;99.90;;;;;;4178102;28;20061;-63
2023/08/27 10:17:14;;;;;;;4.53;1.33;;;21.30;99.90;;;;;;4163050;28;19909;-63
2023/08/27 10:19:15;;;;;;;4.73;1.40;;;21.40;99.90;;;;;;4161284;28;20034;-63
2023/08/27 10:21:16;;;;;;;2.08;0.90;;;21.40;99.90;;;;;;4159609;28;20061;-62
2023/08/27 10:23:18;;;;;;;1.67;0.80;;;21.40;99.90;;;;;;4163459;28;20080;-63
2023/08/27 10:25:19;;;;;;;2.65;1.42;;;21.40;99.90;;;;;;4162827;28;20026;-62
2023/08/27 10:27:21;;;;;;;2.33;1.15;;;21.50;99.90;;;;;;4163462;28;20478;-62
2023/08/27 10:29:24;;;;;;;3.45;1.20;;;21.60;99.90;;;;;;4151994;28;20500;-62
2023/08/27 10:31:25;;;;;;;6.40;1.05;;;21.60;99.90;;;;;;4159676;28;20021;-63
2023/08/27 10:33:27;;;;;;;4.30;1.08;;;21.70;99.90;;;;;;4164218;28;20120;-62